Aviation Digital Data Service (ADDS)

Output produced by METARs form (1511 UTC 19 January 2019)
found at http://www.aviationweather.gov/metar/data/
 
Forecast for: KCYS (CHEYENNE , WY, US)
Text: KCYS 191120Z 1912/2012 32011G20KT P6SM SKC
Forecast period: 1200 to 1600 UTC 19 January 2019
Forecast type: FROM: standard forecast or significant change
Winds: from the NW (320 degrees) at 13 MPH (11 knots; 5.7 m/s)
gusting to 23 MPH (20 knots; 10.3 m/s)
Visibility: 6 or more miles 10+ km)
Clouds: clear skies
Weather: no significant weather forecast for this period
Text: FM191600 29020G30KT P6SM FEW250
Forecast period: 1600 UTC 19 January 2019 to 0100 UTC 20 January 2019
Forecast type: FROM: standard forecast or significant change
Winds: from the WNW (290 degrees) at 23 MPH (20 knots; 10.3 m/s)
gusting to 34 MPH (30 knots; 15.4 m/s)
Visibility: 6 or more miles 10+ km)
Ceiling: at least 12,000 feet AGL
Clouds: few clouds at 25000 feet AGL
Weather: no significant weather forecast for this period
Text: FM200100 27015KT P6SM SCT200
Forecast period: 0100 to 1200 UTC 20 January 2019
Forecast type: FROM: standard forecast or significant change
Winds: from the W (270 degrees) at 17 MPH (15 knots; 7.7 m/s)
Visibility: 6 or more miles 10+ km)
Ceiling: at least 12,000 feet AGL
Clouds: scattered clouds at 20000 feet AGL
Weather: no significant weather forecast for this period